Time;durP1;ratioP1;P1;durP2;ratioP2;P2;SDS_P1;SDS_P2;PMS_P1;PMS_P2;Temp;Humidity;BMP_temperature;BMP_pressure;BME280_temperature;BME280_humidity;BME280_pressure;Samples;Min_cycle;Max_cycle;Signal;HPM_P1;HPM_P2
2023/02/09 00:01:14;;;;;;;41.20;23.60;;;;;;;5.05;46.09;102628.57;145224;1257;96622;-85
2023/02/09 00:04:35;;;;;;;51.40;27.20;;;;;;;5.02;46.12;102625.84;145229;1260;96568;-83
2023/02/09 00:07:57;;;;;;;49.40;26.30;;;;;;;4.99;45.92;102624.39;145205;1259;96567;-86
2023/02/09 00:13:21;;;;;;;46.70;25.70;;;;;;;4.96;46.17;102624.70;145302;1258;96675;-83
2023/02/09 00:15:10;;;;;;;47.90;27.20;;;;;;;4.92;46.11;102627.33;145187;1260;96661;-83
2023/02/09 00:18:32;;;;;;;46.60;26.40;;;;;;;4.89;45.89;102631.73;145117;1259;97671;-83
2023/02/09 00:21:54;;;;;;;53.40;25.90;;;;;;;4.87;45.91;102627.37;145283;1254;96667;-88
2023/02/09 00:25:16;;;;;;;54.80;26.00;;;;;;;4.84;45.89;102629.39;145315;1259;96676;-86
2023/02/09 00:28:38;;;;;;;52.10;27.60;;;;;;;4.81;45.78;102622.59;145127;1260;109759;-85
2023/02/09 00:32:00;;;;;;;53.10;27.60;;;;;;;4.79;45.94;102622.95;145105;1259;96523;-84
2023/02/09 00:35:22;;;;;;;51.50;26.50;;;;;;;4.76;45.77;102628.73;145212;1257;97855;-85
2023/02/09 00:38:44;;;;;;;51.30;27.30;;;;;;;4.74;46.23;102631.49;145068;1261;104165;-85
2023/02/09 00:42:05;;;;;;;53.60;28.90;;;;;;;4.71;46.05;102633.67;145195;1259;97572;-85
2023/02/09 00:45:28;;;;;;;52.70;28.30;;;;;;;4.69;46.04;102630.60;145248;1260;96615;-84
2023/02/09 00:48:50;;;;;;;50.40;26.40;;;;;;;4.68;46.17;102622.23;145072;1261;106503;-84
2023/02/09 00:52:11;;;;;;;50.60;26.90;;;;;;;4.67;46.04;102616.63;145298;1259;97091;-84
2023/02/09 00:55:34;;;;;;;49.20;26.90;;;;;;;4.65;46.05;102607.84;145236;1260;97918;-84
2023/02/09 00:58:55;;;;;;;47.30;26.50;;;;;;;4.64;45.85;102598.92;145337;1259;96658;-85
2023/02/09 01:02:18;;;;;;;47.30;26.70;;;;;;;4.62;45.94;102591.73;145214;1257;97230;-84
2023/02/09 01:05:41;;;;;;;49.10;26.80;;;;;;;4.60;46.18;102585.39;145086;1270;97849;-85
2023/02/09 01:09:04;;;;;;;50.50;27.50;;;;;;;4.57;46.25;102576.02;145262;1267;97839;-83
2023/02/09 01:12:26;;;;;;;58.70;28.40;;;;;;;4.55;46.27;102574.98;145218;1268;96674;-85
2023/02/09 01:15:48;;;;;;;52.60;27.00;;;;;;;4.53;46.00;102574.05;145050;1263;97090;-86
2023/02/09 01:19:12;;;;;;;51.10;27.70;;;;;;;4.49;46.26;102570.05;145184;1254;109703;-85
2023/02/09 01:22:36;;;;;;;55.80;26.40;;;;;;;4.47;46.23;102568.98;145302;1258;109746;-84
2023/02/09 01:26:02;;;;;;;55.90;26.60;;;;;;;4.45;46.12;102565.02;144996;1268;97179;-84
2023/02/09 01:29:27;;;;;;;57.20;28.10;;;;;;;4.43;46.14;102558.52;145027;1254;110309;-84
2023/02/09 01:32:49;;;;;;;46.60;26.10;;;;;;;4.41;45.80;102553.69;145254;1260;97236;-85
2023/02/09 01:36:11;;;;;;;56.50;26.00;;;;;;;4.40;46.15;102546.34;145394;1259;96724;-83
2023/02/09 01:39:32;;;;;;;47.70;24.60;;;;;;;4.38;45.94;102542.54;145353;1258;102141;-86
2023/02/09 01:42:54;;;;;;;48.10;26.90;;;;;;;4.36;46.39;102537.55;145214;1256;96629;-84
2023/02/09 01:46:16;;;;;;;51.40;25.90;;;;;;;4.35;45.98;102533.86;145293;1254;96552;-83
2023/02/09 01:49:38;;;;;;;53.70;26.20;;;;;;;4.33;46.08;102530.63;145160;1260;108364;-83
2023/02/09 01:53:01;;;;;;;49.40;24.40;;;;;;;4.31;46.26;102523.02;145228;1259;96618;-85
2023/02/09 01:56:27;;;;;;;45.60;24.20;;;;;;;4.29;46.00;102519.95;145107;1260;97853;-84
2023/02/09 02:00:13;;;;;;;51.80;25.80;;;;;;;4.28;46.42;102511.73;145107;1254;108370;-84
2023/02/09 02:03:35;;;;;;;46.20;25.30;;;;;;;4.26;46.07;102506.33;145103;1254;107194;-85
2023/02/09 02:07:07;;;;;;;50.70;25.60;;;;;;;4.25;46.18;102497.45;144985;1261;97885;-84
2023/02/09 02:10:30;;;;;;;47.80;25.40;;;;;;;4.23;46.09;102489.36;145366;1260;107593;-83
2023/02/09 02:13:52;;;;;;;44.10;23.70;;;;;;;4.22;45.92;102484.93;144955;1262;96623;-85
2023/02/09 02:17:32;;;;;;;47.50;25.40;;;;;;;4.20;46.21;102481.15;145470;1258;97524;-85
2023/02/09 02:21:31;;;;;;;50.00;23.70;;;;;;;4.18;45.72;102477.20;145258;1264;107556;-83
2023/02/09 02:25:47;;;;;;;46.70;24.10;;;;;;;4.17;45.98;102471.97;145175;1260;107080;-85
2023/02/09 02:29:32;;;;;;;49.90;25.10;;;;;;;4.16;46.00;102457.94;144320;1268;106974;-83
2023/02/09 02:33:02;;;;;;;49.30;24.50;;;;;;;4.15;45.96;102456.34;144179;1271;108581;-84
2023/02/09 02:36:52;;;;;;;47.10;25.20;;;;;;;4.14;45.89;102452.25;144376;1264;108099;-83
2023/02/09 02:40:43;;;;;;;45.10;21.70;;;;;;;4.14;45.87;102446.05;144260;1265;106711;-84
2023/02/09 02:44:11;;;;;;;53.20;27.00;;;;;;;4.13;46.01;102444.77;144295;1267;108662;-85
2023/02/09 02:47:35;;;;;;;49.50;24.70;;;;;;;4.12;45.87;102439.73;144289;1268;105590;-87
2023/02/09 02:51:11;;;;;;;48.70;24.20;;;;;;;4.12;45.90;102439.15;144302;1268;106525;-83
2023/02/09 02:54:40;;;;;;;47.30;24.50;;;;;;;4.10;46.25;102436.45;144444;1270;107388;-83
2023/02/09 02:58:05;;;;;;;48.80;24.90;;;;;;;4.10;45.87;102430.58;144475;1267;107493;-84
2023/02/09 03:01:33;;;;;;;45.00;24.50;;;;;;;4.10;45.71;102425.05;145234;1258;107491;-86
2023/02/09 03:04:57;;;;;;;44.90;24.70;;;;;;;4.09;45.90;102418.78;145231;1255;107550;-85
2023/02/09 03:08:18;;;;;;;44.90;24.30;;;;;;;4.08;45.80;102417.83;145000;1262;107554;-84
2023/02/09 03:11:43;;;;;;;48.70;23.80;;;;;;;4.07;45.85;102410.03;145132;1267;97860;-82
2023/02/09 03:15:20;;;;;;;47.00;24.60;;;;;;;4.07;45.74;102406.95;145148;1267;97463;-83
2023/02/09 03:18:58;;;;;;;44.70;23.90;;;;;;;4.05;45.99;102396.10;145113;1259;109314;-85
2023/02/09 03:22:56;;;;;;;49.10;24.30;;;;;;;4.02;45.73;102388.52;145172;1267;107372;-84
2023/02/09 03:26:26;;;;;;;45.60;25.00;;;;;;;4.02;45.65;102383.11;145093;1260;107470;-84
2023/02/09 03:29:53;;;;;;;44.80;24.30;;;;;;;4.01;46.03;102385.13;145054;1260;108428;-84
2023/02/09 03:33:23;;;;;;;42.70;23.60;;;;;;;4.00;45.38;102388.80;144965;1277;107595;-85
2023/02/09 03:36:50;;;;;;;49.10;25.50;;;;;;;3.99;45.84;102390.30;145190;1267;106298;-82
2023/02/09 03:40:12;;;;;;;47.30;25.30;;;;;;;3.99;45.79;102389.95;145142;1258;105393;-83
2023/02/09 03:47:15;;;;;;;42.80;23.40;;;;;;;3.98;45.57;102397.30;145202;1270;107482;-84
2023/02/09 03:50:37;;;;;;;44.20;23.80;;;;;;;3.98;45.75;102395.91;144895;1260;96619;-83
2023/02/09 03:53:59;;;;;;;46.00;23.30;;;;;;;3.98;45.47;102398.09;145241;1260;96654;-83
2023/02/09 03:57:21;;;;;;;46.50;24.40;;;;;;;3.98;45.70;102398.64;145196;1256;96554;-83
2023/02/09 04:00:42;;;;;;;48.90;23.90;;;;;;;3.98;45.73;102398.13;145071;1259;97879;-85
2023/02/09 04:04:05;;;;;;;45.50;24.70;;;;;;;3.98;45.73;102394.52;145190;1259;96635;-83
2023/02/09 04:07:27;;;;;;;42.70;22.60;;;;;;;3.97;45.71;102395.09;145189;1259;96650;-84
2023/02/09 04:10:49;;;;;;;44.10;24.70;;;;;;;3.96;45.73;102393.35;144899;1260;96721;-84
2023/02/09 04:14:11;;;;;;;45.40;23.20;;;;;;;3.96;45.81;102388.13;145261;1260;97341;-86
2023/02/09 04:17:33;;;;;;;44.60;24.10;;;;;;;3.96;45.67;102394.14;145054;1269;109742;-84
2023/02/09 04:20:54;;;;;;;49.30;23.60;;;;;;;3.95;45.50;102395.09;145112;1254;96558;-85
2023/02/09 04:24:16;;;;;;;47.40;23.80;;;;;;;3.95;45.55;102393.88;145185;1260;96648;-84
2023/02/09 04:27:38;;;;;;;47.00;22.70;;;;;;;3.94;45.75;102388.45;145176;1261;100168;-84
2023/02/09 04:31:00;;;;;;;41.80;24.40;;;;;;;3.93;45.64;102389.29;145166;1259;96570;-83
2023/02/09 04:34:23;;;;;;;51.40;24.20;;;;;;;3.93;45.62;102388.41;145269;1260;97439;-84
2023/02/09 04:37:45;;;;;;;46.20;23.80;;;;;;;3.93;45.67;102385.29;144881;1258;108324;-84
2023/02/09 04:41:08;;;;;;;42.70;22.90;;;;;;;3.92;45.54;102381.44;145175;1254;96618;-84
2023/02/09 04:44:30;;;;;;;44.10;22.90;;;;;;;3.91;45.82;102375.66;145223;1258;96641;-83
2023/02/09 04:47:52;;;;;;;45.20;24.80;;;;;;;3.90;45.50;102369.93;145078;1261;97133;-81
2023/02/09 04:51:14;;;;;;;47.60;22.10;;;;;;;3.90;45.74;102373.52;145215;1259;96571;-83
2023/02/09 04:54:36;;;;;;;45.30;22.70;;;;;;;3.89;45.65;102374.19;145168;1254;98174;-83
2023/02/09 05:01:38;;;;;;;52.10;23.90;;;;;;;3.88;45.50;102375.92;145245;1267;96616;-82
2023/02/09 05:05:00;;;;;;;42.70;22.50;;;;;;;3.87;45.36;102373.98;145113;1254;97477;-83
2023/02/09 05:08:22;;;;;;;42.20;22.20;;;;;;;3.86;45.45;102369.97;145237;1260;96562;-83
2023/02/09 05:11:44;;;;;;;41.70;23.30;;;;;;;3.85;45.77;102361.13;145126;1254;109752;-83
2023/02/09 05:15:06;;;;;;;41.80;22.40;;;;;;;3.84;45.56;102358.24;145123;1254;97471;-83
2023/02/09 05:18:28;;;;;;;43.90;22.90;;;;;;;3.83;45.77;102359.17;145221;1267;96610;-83
2023/02/09 05:21:50;;;;;;;41.70;22.40;;;;;;;3.82;45.67;102360.46;144907;1255;103102;-83
2023/02/09 05:25:12;;;;;;;45.30;24.20;;;;;;;3.80;45.60;102360.84;145281;1260;96596;-82
2023/02/09 05:28:33;;;;;;;41.50;22.00;;;;;;;3.78;45.56;102364.88;145303;1254;96933;-85
2023/02/09 05:31:55;;;;;;;41.20;22.30;;;;;;;3.77;45.61;102363.56;145135;1254;107184;-85
2023/02/09 05:35:18;;;;;;;45.50;23.60;;;;;;;3.75;45.38;102366.31;145121;1260;96609;-85
2023/02/09 05:38:39;;;;;;;41.10;23.10;;;;;;;3.73;45.60;102363.06;145310;1270;96651;-84
2023/02/09 05:42:16;;;;;;;42.60;22.90;;;;;;;3.71;45.57;102351.88;145072;1255;97486;-84
2023/02/09 05:45:38;;;;;;;46.70;23.20;;;;;;;3.69;45.35;102351.55;145195;1260;96562;-83
2023/02/09 05:49:00;;;;;;;46.80;23.50;;;;;;;3.67;45.77;102356.50;145030;1259;97888;-85
2023/02/09 05:52:22;;;;;;;43.90;23.80;;;;;;;3.65;45.67;102351.65;145197;1254;96610;-86
2023/02/09 05:55:45;;;;;;;46.60;23.30;;;;;;;3.63;45.49;102345.50;145180;1260;96648;-82
2023/02/09 05:59:07;;;;;;;45.50;24.40;;;;;;;3.61;45.51;102343.27;145193;1254;96552;-83
2023/02/09 06:02:29;;;;;;;44.20;24.70;;;;;;;3.59;45.42;102344.16;144984;1264;96949;-83
2023/02/09 06:05:51;;;;;;;49.10;24.90;;;;;;;3.58;45.56;102342.48;145157;1254;109984;-84
2023/02/09 06:09:13;;;;;;;42.40;24.20;;;;;;;3.56;45.49;102338.92;145146;1254;97913;-85
2023/02/09 06:12:34;;;;;;;45.80;24.40;;;;;;;3.55;45.61;102333.85;145178;1258;96706;-85
2023/02/09 06:15:56;;;;;;;48.40;24.90;;;;;;;3.54;45.52;102331.22;145132;1263;104229;-84
2023/02/09 06:19:20;;;;;;;44.50;23.50;;;;;;;3.53;45.56;102333.52;145158;1267;97739;-85
2023/02/09 06:22:42;;;;;;;42.90;21.40;;;;;;;3.53;45.42;102332.98;145127;1254;96670;-84
2023/02/09 06:26:08;;;;;;;44.60;23.20;;;;;;;3.52;45.38;102332.56;145179;1260;96584;-85
2023/02/09 06:29:30;;;;;;;52.30;25.40;;;;;;;3.51;45.54;102332.35;145162;1259;107499;-85
2023/02/09 06:32:52;;;;;;;46.50;22.80;;;;;;;3.52;45.44;102334.45;145130;1260;97462;-86
2023/02/09 06:36:14;;;;;;;48.20;24.90;;;;;;;3.51;45.52;102333.91;145240;1258;96580;-83
2023/02/09 06:39:36;;;;;;;47.20;22.40;;;;;;;3.52;45.32;102337.03;145572;1259;96679;-84
2023/02/09 06:42:58;;;;;;;45.70;25.00;;;;;;;3.52;45.37;102339.49;145419;1254;97343;-84
2023/02/09 06:46:20;;;;;;;41.90;22.90;;;;;;;3.53;45.38;102328.90;145162;1261;96747;-86
2023/02/09 06:49:41;;;;;;;51.50;23.90;;;;;;;3.56;45.43;102328.24;145229;1259;97000;-86
2023/02/09 06:53:04;;;;;;;49.90;25.50;;;;;;;3.58;45.49;102330.64;145385;1254;96642;-85
2023/02/09 06:56:26;;;;;;;49.00;24.20;;;;;;;3.60;45.39;102329.94;145526;1259;97860;-84
2023/02/09 06:59:47;;;;;;;48.00;23.90;;;;;;;3.62;45.39;102331.48;145435;1254;109255;-85
2023/02/09 07:03:10;;;;;;;43.90;24.40;;;;;;;3.68;45.07;102335.13;145409;1254;97394;-84
2023/02/09 07:06:32;;;;;;;43.20;24.70;;;;;;;3.76;45.10;102333.19;145517;1254;96574;-83
2023/02/09 07:09:53;;;;;;;47.50;26.00;;;;;;;3.84;45.04;102330.17;145457;1257;100502;-86
2023/02/09 07:13:16;;;;;;;46.40;25.90;;;;;;;3.90;45.17;102326.19;145424;1254;97977;-85
2023/02/09 07:16:38;;;;;;;47.30;25.00;;;;;;;3.95;44.98;102332.67;145467;1254;96562;-86
2023/02/09 07:20:00;;;;;;;46.20;23.50;;;;;;;4.01;45.06;102329.18;145322;1259;107450;-87
2023/02/09 07:23:24;;;;;;;45.90;24.20;;;;;;;4.09;44.69;102331.36;145239;1257;107456;-85
2023/02/09 07:26:46;;;;;;;45.00;24.70;;;;;;;4.17;44.64;102327.95;145213;1254;96561;-85
2023/02/09 07:30:12;;;;;;;45.90;24.40;;;;;;;4.27;44.57;102326.79;145498;1260;96546;-84
2023/02/09 07:33:36;;;;;;;44.10;23.90;;;;;;;4.37;44.57;102327.27;145399;1260;96564;-88
2023/02/09 07:36:58;;;;;;;45.40;24.60;;;;;;;4.46;44.69;102327.61;145326;1254;96731;-85
2023/02/09 07:40:20;;;;;;;44.80;24.20;;;;;;;4.54;44.45;102324.48;145443;1260;97886;-85
2023/02/09 07:43:42;;;;;;;43.90;24.00;;;;;;;4.61;44.38;102326.10;145391;1259;97849;-85
2023/02/09 07:47:04;;;;;;;45.00;25.10;;;;;;;4.69;44.15;102329.48;145157;1254;96731;-84
2023/02/09 07:50:26;;;;;;;40.70;23.90;;;;;;;4.78;43.87;102322.73;145460;1268;97595;-84
2023/02/09 07:53:48;;;;;;;46.20;24.00;;;;;;;4.87;44.01;102315.16;145215;1260;109843;-84
2023/02/09 07:57:12;;;;;;;45.90;24.60;;;;;;;4.96;43.96;102318.10;145139;1257;109700;-85
2023/02/09 08:00:34;;;;;;;47.80;24.10;;;;;;;5.05;43.88;102317.91;145359;1259;96642;-85
2023/02/09 08:03:56;;;;;;;46.20;24.10;;;;;;;5.14;43.71;102316.41;145153;1260;96661;-84
2023/02/09 08:07:21;;;;;;;45.20;26.40;;;;;;;5.55;44.04;102319.34;145092;1254;102965;-84
2023/02/09 08:10:43;;;;;;;45.80;27.10;;;;;;;8.08;43.17;102317.54;145111;1254;97873;-83
2023/02/09 08:14:10;;;;;;;49.80;28.70;;;;;;;10.75;40.84;102314.32;144943;1262;97581;-85
2023/02/09 08:17:32;;;;;;;50.60;30.10;;;;;;;13.00;39.01;102308.02;145421;1258;105777;-84
2023/02/09 08:20:54;;;;;;;44.30;30.40;;;;;;;14.85;37.20;102306.35;145201;1261;96964;-83
2023/02/09 08:24:17;;;;;;;47.50;35.60;;;;;;;16.56;35.77;102305.59;145113;1255;97450;-87
2023/02/09 08:27:41;;;;;;;48.90;40.50;;;;;;;18.15;34.05;102307.39;145261;1259;97857;-84
2023/02/09 08:31:03;;;;;;;48.80;40.50;;;;;;;19.61;32.48;102307.23;144957;1254;97943;-84
2023/02/09 08:34:25;;;;;;;122.40;112.30;;;;;;;21.03;31.04;102305.39;145089;1258;96573;-85
2023/02/09 08:37:49;;;;;;;111.50;102.80;;;;;;;22.30;29.68;102301.91;144806;1264;96638;-83
2023/02/09 08:41:13;;;;;;;75.10;68.40;;;;;;;23.49;28.49;102305.54;145088;1261;96572;-85
2023/02/09 08:44:35;;;;;;;64.20;58.40;;;;;;;24.61;27.44;102309.67;145118;1254;96548;-84
2023/02/09 08:47:57;;;;;;;36.80;32.90;;;;;;;25.61;26.27;102314.45;145087;1258;97494;-86
2023/02/09 08:51:19;;;;;;;40.30;35.50;;;;;;;26.21;25.36;102312.30;145059;1254;96994;-84
2023/02/09 08:54:41;;;;;;;33.60;26.80;;;;;;;26.72;24.72;102316.54;144853;1259;101171;-84
2023/02/09 08:58:03;;;;;;;33.80;26.60;;;;;;;27.21;24.03;102320.36;145071;1260;97363;-85
2023/02/09 09:01:25;;;;;;;31.60;26.20;;;;;;;27.77;23.70;102315.91;145014;1256;96635;-84
2023/02/09 09:04:47;;;;;;;32.80;25.00;;;;;;;28.57;22.89;102311.56;145131;1259;96860;-85
2023/02/09 09:08:12;;;;;;;29.00;22.60;;;;;;;29.28;22.41;102318.05;144824;1256;98057;-85
2023/02/09 09:11:34;;;;;;;29.00;22.40;;;;;;;29.83;21.85;102316.16;145034;1259;96606;-84
2023/02/09 09:14:55;;;;;;;29.80;22.00;;;;;;;30.34;21.36;102312.29;145086;1259;97068;-85
2023/02/09 09:18:17;;;;;;;31.40;22.80;;;;;;;30.81;21.03;102313.82;144993;1256;98621;-84
2023/02/09 09:21:39;;;;;;;27.50;21.90;;;;;;;31.08;20.75;102315.50;145042;1257;97158;-84
2023/02/09 09:25:02;;;;;;;29.30;21.00;;;;;;;31.31;20.57;102312.77;145070;1270;96545;-84
2023/02/09 09:28:24;;;;;;;23.80;21.20;;;;;;;31.61;20.26;102314.14;145184;1259;96678;-86
2023/02/09 09:31:46;;;;;;;26.10;21.10;;;;;;;31.74;20.09;102312.09;145096;1256;96554;-87
2023/02/09 09:35:08;;;;;;;23.90;21.00;;;;;;;31.73;19.96;102314.80;145051;1272;96658;-87
2023/02/09 09:38:38;;;;;;;27.00;20.20;;;;;;;31.76;19.98;102309.52;144954;1259;97156;-83
2023/02/09 09:42:01;;;;;;;28.60;20.90;;;;;;;31.83;19.95;102311.40;145066;1256;96657;-84
2023/02/09 09:45:25;;;;;;;23.40;19.70;;;;;;;31.90;19.97;102301.10;144804;1263;118968;-86
2023/02/09 09:48:53;;;;;;;24.30;20.00;;;;;;;31.80;19.93;102299.30;145323;1259;96660;-85
2023/02/09 09:52:21;;;;;;;23.20;19.30;;;;;;;31.65;20.13;102299.63;144808;1278;96602;-84
2023/02/09 09:55:44;;;;;;;24.20;20.60;;;;;;;31.58;20.18;102295.39;145046;1257;96568;-86
2023/02/09 09:59:14;;;;;;;30.60;21.40;;;;;;;31.40;20.13;102289.51;145021;1259;97467;-85
2023/02/09 10:02:37;;;;;;;27.30;20.10;;;;;;;31.13;20.32;102280.11;145041;1257;96639;-84
2023/02/09 10:06:01;;;;;;;23.70;20.10;;;;;;;31.11;20.33;102272.31;145050;1270;97868;-84
2023/02/09 10:09:56;;;;;;;25.20;19.60;;;;;;;31.20;20.39;102267.31;145028;1256;97866;-84
2023/02/09 10:13:33;;;;;;;22.20;18.30;;;;;;;31.14;20.33;102260.15;144463;1265;96835;-87
2023/02/09 10:16:55;;;;;;;23.00;18.30;;;;;;;31.08;20.51;102251.73;144152;1267;96738;-87
2023/02/09 10:20:17;;;;;;;27.80;19.60;;;;;;;31.07;20.59;102247.82;144370;1267;97585;-85
2023/02/09 10:23:42;;;;;;;24.40;18.90;;;;;;;31.10;20.53;102233.70;144405;1264;97512;-84
2023/02/09 10:27:18;;;;;;;36.80;23.70;;;;;;;31.08;20.04;102226.76;144536;1268;101155;-80
2023/02/09 10:30:44;;;;;;;31.70;23.70;;;;;;;29.59;17.92;102215.05;144358;1263;101208;-82
2023/02/09 10:34:06;;;;;;;31.70;24.50;;;;;;;27.65;17.75;102206.90;144359;1267;101295;-82
2023/02/09 10:37:37;;;;;;;35.20;24.50;;;;;;;26.53;18.03;102196.02;144299;1263;96780;-82
2023/02/09 10:41:00;;;;;;;30.10;23.10;;;;;;;25.74;18.08;102184.31;144283;1267;102130;-84
2023/02/09 10:44:33;;;;;;;37.40;24.20;;;;;;;24.61;18.22;102180.23;144218;1264;97354;-82
2023/02/09 10:47:57;;;;;;;34.80;23.00;;;;;;;23.61;19.13;102165.66;144394;1264;109942;-83
2023/02/09 10:51:28;;;;;;;29.40;23.40;;;;;;;22.85;19.55;102155.39;145034;1254;109795;-82
2023/02/09 10:55:01;;;;;;;30.40;22.80;;;;;;;21.59;19.72;102146.36;144863;1262;109294;-82
2023/02/09 10:58:29;;;;;;;30.30;21.50;;;;;;;20.07;20.11;102141.52;145255;1258;109860;-81
2023/02/09 11:01:59;;;;;;;32.20;22.90;;;;;;;18.54;20.94;102130.23;144877;1266;109959;-82
2023/02/09 11:05:21;;;;;;;34.40;23.60;;;;;;;17.69;22.04;102116.71;145112;1258;109714;-81
2023/02/09 11:08:46;;;;;;;41.30;23.50;;;;;;;17.20;22.73;102106.25;145043;1256;97464;-82
2023/02/09 11:12:12;;;;;;;28.20;20.50;;;;;;;16.68;23.46;102103.89;145159;1270;109688;-81
2023/02/09 11:15:38;;;;;;;30.00;21.30;;;;;;;15.91;23.54;102107.70;145077;1255;110489;-81
2023/02/09 11:19:21;;;;;;;32.90;19.70;;;;;;;15.15;24.44;102096.94;145139;1259;108189;-82
2023/02/09 11:22:58;;;;;;;26.70;19.90;;;;;;;14.85;24.86;102093.50;144958;1260;109814;-81
2023/02/09 11:26:37;;;;;;;39.40;20.40;;;;;;;14.92;25.66;102081.31;145186;1255;109309;-82
2023/02/09 11:30:35;;;;;;;31.80;20.20;;;;;;;14.94;26.02;102076.27;145103;1259;109686;-81
2023/02/09 11:34:21;;;;;;;45.40;19.90;;;;;;;14.87;26.58;102072.05;144957;1260;111107;-83
2023/02/09 11:37:57;;;;;;;31.60;20.70;;;;;;;15.15;28.10;102070.48;145067;1254;110728;-80
2023/02/09 11:45:15;;;;;;;27.40;16.70;;;;;;;16.27;29.63;102058.38;145205;1256;109787;-86
2023/02/09 11:48:44;;;;;;;28.70;15.70;;;;;;;17.34;29.71;102049.64;145107;1259;109774;-83
2023/02/09 11:52:07;;;;;;;21.90;14.20;;;;;;;18.38;29.70;102049.67;145075;1259;109829;-82
2023/02/09 11:55:56;;;;;;;24.10;14.00;;;;;;;19.27;29.60;102049.05;145125;1260;96639;-84
2023/02/09 11:59:27;;;;;;;25.10;15.70;;;;;;;20.15;28.11;102049.13;145057;1259;109579;-86
2023/02/09 12:03:11;;;;;;;22.70;15.50;;;;;;;18.63;21.33;102038.84;144917;1254;110407;-82
2023/02/09 12:06:38;;;;;;;20.90;15.90;;;;;;;15.53;23.09;102039.57;145132;1259;109942;-81
2023/02/09 12:10:06;;;;;;;19.40;16.20;;;;;;;13.98;23.57;102033.38;145254;1258;110729;-81
2023/02/09 12:13:39;;;;;;;28.60;16.70;;;;;;;12.76;24.49;102030.58;145062;1254;110360;-81
2023/02/09 12:17:23;;;;;;;28.30;16.00;;;;;;;11.64;25.45;102030.08;145168;1260;109735;-81
2023/02/09 12:20:50;;;;;;;25.20;16.60;;;;;;;11.21;26.17;102026.16;145043;1255;110641;-80
2023/02/09 12:24:32;;;;;;;26.30;16.90;;;;;;;10.79;26.52;102017.20;145099;1257;109182;-82
2023/02/09 12:28:13;;;;;;;27.20;17.60;;;;;;;10.35;26.91;102011.70;145187;1261;107779;-80
2023/02/09 12:32:00;;;;;;;24.40;17.30;;;;;;;9.70;27.34;102012.48;145168;1254;109566;-83
2023/02/09 12:35:37;;;;;;;23.40;16.00;;;;;;;9.20;28.38;101999.17;145128;1256;111094;-81
2023/02/09 12:39:20;;;;;;;24.40;16.10;;;;;;;9.05;28.77;101992.98;145105;1259;110716;-79
2023/02/09 12:43:08;;;;;;;32.60;17.40;;;;;;;8.80;29.11;101988.30;145239;1254;109690;-81
2023/02/09 12:46:30;;;;;;;31.00;16.50;;;;;;;8.76;29.26;101980.56;145151;1257;110809;-80
2023/02/09 12:50:02;;;;;;;23.40;15.40;;;;;;;8.87;29.31;101970.30;145169;1254;97846;-83
2023/02/09 12:53:25;;;;;;;26.40;14.40;;;;;;;9.71;30.31;101959.02;145186;1270;110627;-84
2023/02/09 12:56:47;;;;;;;23.20;14.70;;;;;;;10.92;29.97;101957.45;145156;1258;96556;-84
2023/02/09 13:00:09;;;;;;;23.40;15.40;;;;;;;11.95;29.38;101963.00;145231;1256;96661;-83
2023/02/09 13:03:32;;;;;;;17.70;14.00;;;;;;;12.72;28.94;101956.83;144951;1260;102173;-83
2023/02/09 13:06:56;;;;;;;24.30;15.40;;;;;;;13.20;28.51;101960.79;145192;1254;102286;-84
2023/02/09 13:10:48;;;;;;;23.80;15.00;;;;;;;13.38;28.15;101960.45;144907;1260;103164;-86
2023/02/09 13:14:13;;;;;;;21.50;14.60;;;;;;;13.34;27.67;101950.85;145195;1259;102005;-84
2023/02/09 13:17:38;;;;;;;20.30;14.00;;;;;;;13.30;27.52;101948.45;144966;1259;101871;-83
2023/02/09 13:21:21;;;;;;;23.80;14.80;;;;;;;13.40;27.87;101942.70;145167;1259;102002;-83
2023/02/09 13:25:22;;;;;;;19.00;14.50;;;;;;;13.59;27.81;101932.73;145360;1254;101993;-88
2023/02/09 13:28:44;;;;;;;19.30;13.00;;;;;;;13.82;27.62;101924.82;145253;1260;102529;-88
2023/02/09 13:32:16;;;;;;;17.30;13.30;;;;;;;14.00;27.29;101918.46;145119;1254;97879;-86
2023/02/09 13:36:03;;;;;;;18.60;13.40;;;;;;;14.05;26.86;101909.02;145202;1260;103239;-84
2023/02/09 13:39:36;;;;;;;18.90;13.20;;;;;;;13.99;26.42;101902.16;145127;1254;102054;-80
2023/02/09 13:43:11;;;;;;;18.60;12.60;;;;;;;13.93;26.20;101897.94;145575;1256;102166;-79
2023/02/09 13:46:34;;;;;;;18.70;13.10;;;;;;;13.88;26.02;101890.59;145423;1258;102164;-80
2023/02/09 13:49:57;;;;;;;18.90;12.50;;;;;;;13.99;25.96;101888.02;145534;1257;96631;-80
2023/02/09 13:53:21;;;;;;;16.70;11.60;;;;;;;14.31;25.78;101892.54;145584;1256;97857;-80
2023/02/09 13:56:59;;;;;;;16.80;11.50;;;;;;;14.60;25.44;101894.72;145457;1255;102204;-80
2023/02/09 14:00:30;;;;;;;14.30;11.10;;;;;;;14.63;25.27;101894.48;145553;1256;102198;-80
2023/02/09 14:03:58;;;;;;;16.30;11.10;;;;;;;14.65;25.06;101892.97;145126;1254;101889;-85
2023/02/09 14:07:23;;;;;;;15.20;11.60;;;;;;;14.66;25.04;101894.92;145387;1260;102773;-78
2023/02/09 14:10:54;;;;;;;13.70;12.20;;;;;;;14.60;24.90;101890.02;145394;1259;102004;-78
2023/02/09 14:18:51;;;;;;;20.80;12.10;;;;;;;14.55;24.75;101875.84;144600;1266;102019;-78
2023/02/09 14:22:32;;;;;;;17.70;11.40;;;;;;;14.54;24.78;101869.71;144661;1264;101497;-78
2023/02/09 14:26:27;;;;;;;16.40;11.00;;;;;;;14.85;24.68;101871.71;144564;1265;102296;-78
2023/02/09 14:29:49;;;;;;;18.70;11.60;;;;;;;14.82;24.60;101860.92;144046;1270;102938;-78
2023/02/09 14:33:23;;;;;;;14.70;10.90;;;;;;;14.45;24.57;101846.66;144004;1273;97929;-78
2023/02/09 14:36:55;;;;;;;14.30;11.10;;;;;;;13.96;24.75;101842.11;143879;1272;102357;-78
2023/02/09 14:40:28;;;;;;;18.00;12.70;;;;;;;13.49;24.93;101841.38;144144;1273;102253;-87
2023/02/09 14:44:02;;;;;;;22.60;12.10;;;;;;;13.04;25.49;101844.42;143910;1270;102203;-77
2023/02/09 14:47:33;;;;;;;23.30;11.80;;;;;;;12.65;25.58;101841.91;143987;1273;101929;-76
2023/02/09 14:51:01;;;;;;;21.70;13.00;;;;;;;12.54;25.90;101839.39;143949;1272;102145;-78
2023/02/09 14:54:27;;;;;;;18.50;11.70;;;;;;;12.29;26.03;101836.51;143941;1265;102327;-78
2023/02/09 14:57:48;;;;;;;26.60;12.80;;;;;;;11.84;26.37;101833.62;144145;1265;103129;-78
2023/02/09 15:01:10;;;;;;;16.80;12.00;;;;;;;11.45;26.84;101835.76;144705;1265;97770;-85
2023/02/09 15:04:32;;;;;;;24.90;13.70;;;;;;;11.10;27.12;101831.79;144334;1264;96766;-80
2023/02/09 15:08:00;;;;;;;17.60;11.50;;;;;;;10.77;27.53;101833.79;144467;1257;107160;-78
2023/02/09 15:15:05;;;;;;;17.90;12.90;;;;;;;10.10;28.30;101834.40;144806;1256;107311;-79
2023/02/09 15:18:27;;;;;;;24.10;13.00;;;;;;;9.81;28.60;101832.95;144840;1256;97477;-80
2023/02/09 15:21:50;;;;;;;18.60;12.60;;;;;;;9.55;29.11;101835.46;144841;1260;96727;-80
2023/02/09 15:25:28;;;;;;;20.10;13.20;;;;;;;9.32;29.12;101834.14;144806;1261;107660;-80
2023/02/09 15:28:50;;;;;;;23.90;13.20;;;;;;;9.15;29.48;101833.24;144679;1260;97866;-81
2023/02/09 15:32:16;;;;;;;22.80;13.60;;;;;;;8.97;30.37;101832.45;145003;1270;96647;-81
2023/02/09 15:35:40;;;;;;;23.70;13.30;;;;;;;8.87;31.83;101830.73;145205;1259;97458;-81
2023/02/09 15:39:03;;;;;;;24.20;14.00;;;;;;;8.80;32.93;101833.77;145342;1255;97466;-80
2023/02/09 15:49:48;;;;;;;17.30;12.50;;;;;;;9.13;33.60;101817.71;145010;1259;96581;-78
2023/02/09 15:53:13;;;;;;;24.00;13.00;;;;;;;9.31;33.52;101817.77;145210;1259;97448;-79
2023/02/09 15:56:36;;;;;;;20.50;12.50;;;;;;;9.44;33.59;101810.09;145450;1255;97033;-77